Time;durP1;ratioP1;P1;durP2;ratioP2;P2;SDS_P1;SDS_P2;PMS_P1;PMS_P2;Temp;Humidity;BMP_temperature;BMP_pressure;BME280_temperature;BME280_humidity;BME280_pressure;Samples;Min_cycle;Max_cycle;Signal;HPM_P1;HPM_P2
2023/03/07 00:01:51;;;;;;;2.15;0.70;;;;;;;;;;5047889;28;20041;-81
2023/03/07 00:04:17;;;;;;;2.05;0.70;;;;;;;;;;5053140;28;20084;-81
2023/03/07 00:06:43;;;;;;;2.22;0.75;;;;;;;;;;5053432;28;20556;-81
2023/03/07 00:09:09;;;;;;;1.50;0.70;;;;;;;;;;5045955;28;20044;-84
2023/03/07 00:11:35;;;;;;;1.90;0.65;;;;;;;;;;5070623;28;20128;-81
2023/03/07 00:14:01;;;;;;;5.28;0.90;;;;;;;;;;5053427;28;20048;-82
2023/03/07 00:16:27;;;;;;;4.07;0.90;;;;;;;;;;5054053;28;20487;-80
2023/03/07 00:18:54;;;;;;;2.63;0.77;;;;;;;;;;5054263;28;20125;-83
2023/03/07 00:21:21;;;;;;;2.08;0.75;;;;;;;;;;5052879;28;20041;-81
2023/03/07 00:23:47;;;;;;;6.13;0.90;;;;;;;;;;5054110;28;20041;-82
2023/03/07 00:26:15;;;;;;;5.65;0.90;;;;;;;;;;5036507;28;20476;-81
2023/03/07 00:28:42;;;;;;;2.58;0.90;;;;;;;;;;5052573;28;20052;-83
2023/03/07 00:31:09;;;;;;;3.80;0.90;;;;;;;;;;5052952;28;20041;-82
2023/03/07 00:33:35;;;;;;;5.80;1.10;;;;;;;;;;5053665;28;20492;-80
2023/03/07 00:36:04;;;;;;;5.15;1.10;;;;;;;;;;5052845;28;20498;-81
2023/03/07 00:38:31;;;;;;;4.00;1.30;;;;;;;;;;5052461;28;20509;-81
2023/03/07 00:41:05;;;;;;;8.93;1.40;;;;;;;;;;5033177;28;20047;-82
2023/03/07 00:43:31;;;;;;;4.82;1.50;;;;;;;;;;5046941;28;20041;-81
2023/03/07 00:45:57;;;;;;;5.32;1.35;;;;;;;;;;5053602;28;20051;-81
2023/03/07 00:48:24;;;;;;;3.63;1.10;;;;;;;;;;5053672;28;20048;-81
2023/03/07 00:50:50;;;;;;;8.25;1.50;;;;;;;;;;5051494;28;20037;-81
2023/03/07 00:53:17;;;;;;;6.20;1.35;;;;;;;;;;5022883;28;20045;-81
2023/03/07 00:55:52;;;;;;;4.75;1.45;;;;;;;;;;5053417;28;20036;-81
2023/03/07 00:58:18;;;;;;;5.68;1.33;;;;;;;;;;5051656;28;20044;-81
2023/03/07 01:00:44;;;;;;;7.03;1.38;;;;;;;;;;5045956;28;20091;-81
2023/03/07 01:03:10;;;;;;;5.97;1.20;;;;;;;;;;5046804;28;20039;-81
2023/03/07 01:05:40;;;;;;;4.13;1.45;;;;;;;;;;5051868;28;20040;-81
2023/03/07 01:08:06;;;;;;;5.03;1.73;;;;;;;;;;5052022;28;20033;-81
2023/03/07 01:10:32;;;;;;;6.50;1.33;;;;;;;;;;5051823;28;20495;-81
2023/03/07 01:12:59;;;;;;;6.88;1.40;;;;;;;;;;5051924;28;20091;-81
2023/03/07 01:15:26;;;;;;;4.88;1.30;;;;;;;;;;5054189;28;20033;-76
2023/03/07 01:17:52;;;;;;;8.70;1.40;;;;;;;;;;5053112;28;20090;-76
2023/03/07 01:20:19;;;;;;;9.20;1.30;;;;;;;;;;5051512;28;20045;-77
2023/03/07 01:22:45;;;;;;;7.20;1.30;;;;;;;;;;5035285;28;20063;-76
2023/03/07 01:25:12;;;;;;;4.90;1.30;;;;;;;;;;5051679;28;20098;-77
2023/03/07 01:27:38;;;;;;;7.15;1.42;;;;;;;;;;5034531;28;20049;-80
2023/03/07 01:30:08;;;;;;;9.10;1.70;;;;;;;;;;5051643;28;20101;-82
2023/03/07 01:32:34;;;;;;;6.78;1.45;;;;;;;;;;5051464;28;20376;-81
2023/03/07 01:35:00;;;;;;;6.78;1.30;;;;;;;;;;5052481;28;20488;-77
2023/03/07 01:37:26;;;;;;;8.95;1.60;;;;;;;;;;5051193;28;20052;-76
2023/03/07 01:39:53;;;;;;;5.18;1.30;;;;;;;;;;5034904;28;20491;-77
2023/03/07 01:42:19;;;;;;;8.18;1.20;;;;;;;;;;5052530;28;20032;-77
2023/03/07 01:44:58;;;;;;;4.30;1.20;;;;;;;;;;5051178;28;20044;-81
2023/03/07 01:47:24;;;;;;;5.45;1.17;;;;;;;;;;5050904;28;20037;-80
2023/03/07 01:49:50;;;;;;;7.75;1.50;;;;;;;;;;5051526;28;20605;-81
2023/03/07 01:52:27;;;;;;;9.38;1.42;;;;;;;;;;5075105;28;20131;-81
2023/03/07 01:54:59;;;;;;;12.75;1.88;;;;;;;;;;5054932;28;20055;-81
2023/03/07 01:57:28;;;;;;;11.45;1.67;;;;;;;;;;5057738;28;20094;-77
2023/03/07 01:59:57;;;;;;;9.32;1.42;;;;;;;;;;5052364;28;20041;-75
2023/03/07 02:02:23;;;;;;;11.18;1.73;;;;;;;;;;5051053;28;20102;-80
2023/03/07 02:04:56;;;;;;;13.35;1.50;;;;;;;;;;5051195;28;20041;-81
2023/03/07 02:07:24;;;;;;;11.88;1.60;;;;;;;;;;5052283;28;20048;-81
2023/03/07 02:09:51;;;;;;;11.55;1.30;;;;;;;;;;5050488;28;20083;-81
2023/03/07 02:12:17;;;;;;;10.73;1.20;;;;;;;;;;5050773;28;20045;-80
2023/03/07 02:14:45;;;;;;;8.45;1.20;;;;;;;;;;5050819;28;20041;-81
2023/03/07 02:17:12;;;;;;;12.38;2.00;;;;;;;;;;5052172;28;20048;-76
2023/03/07 02:19:53;;;;;;;10.50;1.35;;;;;;;;;;5050480;28;20041;-77
2023/03/07 02:22:19;;;;;;;13.00;1.55;;;;;;;;;;5050918;28;20094;-77
2023/03/07 02:25:05;;;;;;;9.23;1.33;;;;;;;;;;5050514;28;20051;-77
2023/03/07 02:27:33;;;;;;;9.43;1.00;;;;;;;;;;5044199;28;20059;-77
2023/03/07 02:29:59;;;;;;;8.63;1.02;;;;;;;;;;5037151;28;20049;-80
2023/03/07 02:32:25;;;;;;;8.82;1.10;;;;;;;;;;5050783;28;20049;-80
2023/03/07 02:34:51;;;;;;;6.45;0.80;;;;;;;;;;5051597;28;20040;-76
2023/03/07 02:37:30;;;;;;;5.00;1.10;;;;;;;;;;5050779;28;20166;-76
2023/03/07 02:39:56;;;;;;;7.18;0.82;;;;;;;;;;5050665;28;20084;-76
2023/03/07 02:42:28;;;;;;;7.68;1.00;;;;;;;;;;5050817;28;20090;-76
2023/03/07 02:44:58;;;;;;;8.30;0.90;;;;;;;;;;5033946;28;20182;-76
2023/03/07 02:47:24;;;;;;;7.47;1.00;;;;;;;;;;5050656;28;20049;-76
2023/03/07 02:49:50;;;;;;;4.65;0.80;;;;;;;;;;5051848;28;20052;-76
2023/03/07 02:52:16;;;;;;;4.38;0.90;;;;;;;;;;5051108;28;20048;-76
2023/03/07 02:54:43;;;;;;;5.80;0.80;;;;;;;;;;5063332;28;20040;-75
2023/03/07 02:57:09;;;;;;;6.70;1.00;;;;;;;;;;5065503;28;20063;-76
2023/03/07 02:59:35;;;;;;;4.43;0.95;;;;;;;;;;5050203;28;20052;-76
2023/03/07 03:02:01;;;;;;;8.40;1.65;;;;;;;;;;5030721;28;20125;-76
2023/03/07 03:04:28;;;;;;;7.18;1.35;;;;;;;;;;5051261;28;20045;-76
2023/03/07 03:06:54;;;;;;;10.95;1.23;;;;;;;;;;5045235;28;20045;-76
2023/03/07 03:09:20;;;;;;;4.70;1.05;;;;;;;;;;5034137;28;20098;-76
2023/03/07 03:11:46;;;;;;;11.57;1.48;;;;;;;;;;5033263;28;20037;-76
2023/03/07 03:14:12;;;;;;;11.27;1.13;;;;;;;;;;5050852;28;20372;-76
2023/03/07 03:16:39;;;;;;;7.93;1.20;;;;;;;;;;5053673;28;20045;-76
2023/03/07 03:19:05;;;;;;;8.23;1.70;;;;;;;;;;5050297;28;20053;-76
2023/03/07 03:21:31;;;;;;;6.15;1.20;;;;;;;;;;5034848;28;20041;-76
2023/03/07 03:23:57;;;;;;;9.75;1.58;;;;;;;;;;5053861;28;20120;-79
2023/03/07 03:26:23;;;;;;;8.35;1.45;;;;;;;;;;5070861;28;20037;-80
2023/03/07 03:28:50;;;;;;;7.03;1.25;;;;;;;;;;5070241;28;20053;-80
2023/03/07 03:31:16;;;;;;;10.52;1.17;;;;;;;;;;5054268;28;20056;-80
2023/03/07 03:33:43;;;;;;;8.95;1.70;;;;;;;;;;5054582;28;20041;-79
2023/03/07 03:36:11;;;;;;;7.22;1.50;;;;;;;;;;5054443;28;20099;-79
2023/03/07 03:38:37;;;;;;;7.00;1.45;;;;;;;;;;5037198;28;20052;-80
2023/03/07 03:41:07;;;;;;;10.35;1.30;;;;;;;;;;5055458;28;20461;-81
2023/03/07 03:43:34;;;;;;;9.88;1.45;;;;;;;;;;5053689;28;20101;-80
2023/03/07 03:46:00;;;;;;;8.23;1.15;;;;;;;;;;5053102;28;20083;-76
2023/03/07 03:48:26;;;;;;;8.10;1.00;;;;;;;;;;5036988;28;20091;-76
2023/03/07 03:51:03;;;;;;;8.88;1.20;;;;;;;;;;5053196;28;20167;-80
2023/03/07 03:53:30;;;;;;;9.57;1.00;;;;;;;;;;5053479;28;20041;-80
2023/03/07 03:56:04;;;;;;;8.70;1.10;;;;;;;;;;5053489;28;20483;-80
2023/03/07 03:58:30;;;;;;;7.10;1.05;;;;;;;;;;5054438;28;20114;-80
2023/03/07 04:00:57;;;;;;;8.13;1.08;;;;;;;;;;5069822;28;20360;-78
2023/03/07 04:03:23;;;;;;;6.57;1.40;;;;;;;;;;5036771;28;20045;-80
2023/03/07 04:05:49;;;;;;;5.78;1.00;;;;;;;;;;5052808;28;20090;-79
2023/03/07 04:08:15;;;;;;;10.88;1.30;;;;;;;;;;5053160;28;20048;-79
2023/03/07 04:10:41;;;;;;;7.75;1.02;;;;;;;;;;5054403;28;20530;-79
2023/03/07 04:13:07;;;;;;;11.52;1.10;;;;;;;;;;5052954;28;20048;-79
2023/03/07 04:15:33;;;;;;;6.97;0.80;;;;;;;;;;5053455;28;20047;-80
2023/03/07 04:17:59;;;;;;;6.35;0.80;;;;;;;;;;5052986;28;20033;-79
2023/03/07 04:20:25;;;;;;;8.68;1.20;;;;;;;;;;5052903;28;20514;-76
2023/03/07 04:22:51;;;;;;;11.00;1.35;;;;;;;;;;5052701;28;20037;-80
2023/03/07 04:25:17;;;;;;;5.68;1.02;;;;;;;;;;5054105;28;20098;-80
2023/03/07 04:27:44;;;;;;;10.07;1.20;;;;;;;;;;5052646;28;20053;-79
2023/03/07 04:30:10;;;;;;;6.60;1.10;;;;;;;;;;5070016;28;20045;-78
2023/03/07 04:32:38;;;;;;;12.05;1.10;;;;;;;;;;5052274;28;20052;-78
2023/03/07 04:35:04;;;;;;;7.82;0.77;;;;;;;;;;5052366;28;20076;-78
2023/03/07 04:37:31;;;;;;;8.23;1.00;;;;;;;;;;5053834;28;20455;-78
2023/03/07 04:39:57;;;;;;;8.32;0.93;;;;;;;;;;5052389;28;20084;-79
2023/03/07 04:42:23;;;;;;;10.15;0.80;;;;;;;;;;5053806;28;20037;-79
2023/03/07 04:44:49;;;;;;;8.27;1.00;;;;;;;;;;5052766;28;20379;-79
2023/03/07 04:47:15;;;;;;;7.55;1.10;;;;;;;;;;5052410;28;20116;-79
2023/03/07 04:49:41;;;;;;;6.85;1.00;;;;;;;;;;5052374;28;20049;-79
2023/03/07 04:52:07;;;;;;;3.78;1.50;;;;;;;;;;5052405;28;20502;-79
2023/03/07 04:54:33;;;;;;;7.47;1.10;;;;;;;;;;5053967;28;20045;-79
2023/03/07 04:57:00;;;;;;;3.92;1.35;;;;;;;;;;5053162;28;20121;-79
2023/03/07 04:59:26;;;;;;;6.45;1.15;;;;;;;;;;5052296;28;20408;-80
2023/03/07 05:01:52;;;;;;;11.48;0.90;;;;;;;;;;5081013;28;20041;-80
2023/03/07 05:04:18;;;;;;;9.23;1.08;;;;;;;;;;5054841;28;20044;-79
2023/03/07 05:06:44;;;;;;;5.20;0.80;;;;;;;;;;5061016;28;20044;-79
2023/03/07 05:09:10;;;;;;;5.60;0.88;;;;;;;;;;5035516;28;20049;-79
2023/03/07 05:11:36;;;;;;;7.65;1.00;;;;;;;;;;5052414;28;20483;-79
2023/03/07 05:14:02;;;;;;;7.72;0.73;;;;;;;;;;5053289;28;20123;-79
2023/03/07 05:16:28;;;;;;;5.47;0.88;;;;;;;;;;5015863;28;20037;-79
2023/03/07 05:18:54;;;;;;;7.07;1.20;;;;;;;;;;5034471;28;20041;-79
2023/03/07 05:21:20;;;;;;;8.07;1.10;;;;;;;;;;5052245;28;20044;-79
2023/03/07 05:23:46;;;;;;;9.13;1.20;;;;;;;;;;5051924;28;20124;-79
2023/03/07 05:26:12;;;;;;;8.82;1.25;;;;;;;;;;5051630;28;20041;-79
2023/03/07 05:28:38;;;;;;;7.97;1.05;;;;;;;;;;5051777;28;20072;-79
2023/03/07 05:31:05;;;;;;;9.65;1.50;;;;;;;;;;5052073;28;20076;-79
2023/03/07 05:33:31;;;;;;;10.02;1.20;;;;;;;;;;5052327;28;20513;-79
2023/03/07 05:36:00;;;;;;;9.02;1.02;;;;;;;;;;5051208;28;20057;-75
2023/03/07 05:38:26;;;;;;;10.00;1.00;;;;;;;;;;5053374;28;20037;-79
2023/03/07 05:40:52;;;;;;;10.05;1.05;;;;;;;;;;5053535;28;20434;-80
2023/03/07 05:43:18;;;;;;;8.10;1.05;;;;;;;;;;5035137;28;20041;-78
2023/03/07 05:45:44;;;;;;;9.48;1.38;;;;;;;;;;5050756;28;20044;-80
2023/03/07 05:48:11;;;;;;;4.82;0.77;;;;;;;;;;5065114;28;20043;-79
2023/03/07 05:50:37;;;;;;;7.03;1.10;;;;;;;;;;5053671;28;20526;-80
2023/03/07 05:53:05;;;;;;;5.07;0.80;;;;;;;;;;5037273;28;20029;-79
2023/03/07 05:55:31;;;;;;;6.45;1.00;;;;;;;;;;5051512;28;20053;-79
2023/03/07 05:57:57;;;;;;;6.47;0.90;;;;;;;;;;5050845;28;20098;-76
2023/03/07 06:00:23;;;;;;;9.85;1.20;;;;;;;;;;5031301;28;20045;-76
2023/03/07 06:02:49;;;;;;;8.15;1.48;;;;;;;;;;5045872;28;20076;-76
2023/03/07 06:05:15;;;;;;;11.40;1.08;;;;;;;;;;5050996;28;20122;-80
2023/03/07 06:07:42;;;;;;;8.35;1.10;;;;;;;;;;5051408;28;20033;-80
2023/03/07 06:10:09;;;;;;;8.27;0.90;;;;;;;;;;5050898;28;20045;-79
2023/03/07 06:12:35;;;;;;;7.78;1.30;;;;;;;;;;5027355;28;20045;-80
2023/03/07 06:15:02;;;;;;;15.23;1.50;;;;;;;;;;5077711;28;20049;-79
2023/03/07 06:17:28;;;;;;;13.88;1.10;;;;;;;;;;5052354;28;20047;-80
2023/03/07 06:19:54;;;;;;;8.02;0.90;;;;;;;;;;5034711;28;20124;-76
2023/03/07 06:22:20;;;;;;;7.05;0.80;;;;;;;;;;5051856;28;20111;-80
2023/03/07 06:24:46;;;;;;;12.05;1.15;;;;;;;;;;5034639;28;20047;-79
2023/03/07 06:27:12;;;;;;;3.55;0.80;;;;;;;;;;5050690;28;20120;-78
2023/03/07 06:29:38;;;;;;;5.13;0.80;;;;;;;;;;5051248;28;20452;-79
2023/03/07 06:32:04;;;;;;;8.02;0.70;;;;;;;;;;5050885;28;20139;-75
2023/03/07 06:34:31;;;;;;;5.75;0.88;;;;;;;;;;5067613;28;20056;-76
2023/03/07 06:36:57;;;;;;;7.30;0.90;;;;;;;;;;5034326;28;20053;-76
2023/03/07 06:39:27;;;;;;;6.40;0.90;;;;;;;;;;5051650;28;20045;-76
2023/03/07 06:41:54;;;;;;;3.38;0.80;;;;;;;;;;5052348;28;20483;-76
2023/03/07 06:44:20;;;;;;;9.02;1.10;;;;;;;;;;5084480;28;20045;-75
2023/03/07 06:46:46;;;;;;;5.60;0.90;;;;;;;;;;5051049;28;20048;-76
2023/03/07 06:49:12;;;;;;;4.97;1.10;;;;;;;;;;5033698;28;20049;-75
2023/03/07 06:51:38;;;;;;;5.00;1.10;;;;;;;;;;5051254;28;20455;-76
2023/03/07 06:54:04;;;;;;;8.55;1.20;;;;;;;;;;5033611;28;20040;-76
2023/03/07 06:56:30;;;;;;;7.78;1.40;;;;;;;;;;5052285;28;20041;-76
2023/03/07 06:58:56;;;;;;;7.22;1.27;;;;;;;;;;5068416;28;20072;-79
2023/03/07 07:01:22;;;;;;;10.70;1.38;;;;;;;;;;5055604;28;20056;-81
2023/03/07 07:03:48;;;;;;;9.05;1.20;;;;;;;;;;5054434;28;20072;-81
2023/03/07 07:06:15;;;;;;;7.28;1.27;;;;;;;;;;5037990;28;20475;-81
2023/03/07 07:08:41;;;;;;;5.72;1.10;;;;;;;;;;5054291;28;20048;-76
2023/03/07 07:11:07;;;;;;;7.45;1.25;;;;;;;;;;5037710;28;20084;-76
2023/03/07 07:13:33;;;;;;;9.38;1.33;;;;;;;;;;5055532;28;20041;-76
2023/03/07 07:16:03;;;;;;;9.73;1.08;;;;;;;;;;5054175;28;20166;-76
2023/03/07 07:18:29;;;;;;;13.75;1.30;;;;;;;;;;5037180;28;20124;-76
2023/03/07 07:20:55;;;;;;;7.60;1.05;;;;;;;;;;5021046;28;20041;-76
2023/03/07 07:23:22;;;;;;;12.18;1.45;;;;;;;;;;5055565;28;20099;-76
2023/03/07 07:25:48;;;;;;;9.20;1.40;;;;;;;;;;5053902;28;20064;-76
2023/03/07 07:28:14;;;;;;;11.70;1.67;;;;;;;;;;5053455;28;20053;-76
2023/03/07 07:30:40;;;;;;;12.27;1.67;;;;;;;;;;5053892;28;20106;-77
2023/03/07 07:33:06;;;;;;;13.80;2.15;;;;;;;;;;5055249;28;20095;-75
2023/03/07 07:35:32;;;;;;;12.55;1.80;;;;;;;;;;5053194;28;20045;-76
2023/03/07 07:37:58;;;;;;;12.80;2.25;;;;;;;;;;5054103;28;20394;-77
2023/03/07 07:40:24;;;;;;;10.15;1.77;;;;;;;;;;5054480;28;20045;-77
2023/03/07 07:42:54;;;;;;;12.10;1.75;;;;;;;;;;5053969;28;20041;-77
2023/03/07 07:45:20;;;;;;;10.30;1.60;;;;;;;;;;5053508;28;20044;-77
2023/03/07 07:47:48;;;;;;;7.72;1.00;;;;;;;;;;5053733;28;20049;-77
2023/03/07 07:50:15;;;;;;;6.50;1.00;;;;;;;;;;5054371;28;20501;-77
2023/03/07 07:52:41;;;;;;;11.30;1.27;;;;;;;;;;5053749;28;20040;-77
2023/03/07 07:55:07;;;;;;;6.93;1.17;;;;;;;;;;5009737;28;20071;-77
2023/03/07 07:57:33;;;;;;;7.75;1.02;;;;;;;;;;5051429;28;20045;-77
2023/03/07 07:59:59;;;;;;;4.60;0.82;;;;;;;;;;5054842;28;20045;-77
2023/03/07 08:02:25;;;;;;;5.97;0.93;;;;;;;;;;5085015;28;20036;-77
2023/03/07 08:04:51;;;;;;;6.13;1.08;;;;;;;;;;5054905;28;20116;-77
2023/03/07 08:07:17;;;;;;;7.53;0.95;;;;;;;;;;5053586;28;20037;-77
2023/03/07 08:09:43;;;;;;;3.78;0.63;;;;;;;;;;5052602;28;20128;-77
2023/03/07 08:12:11;;;;;;;4.95;0.90;;;;;;;;;;5053478;28;20048;-77
2023/03/07 08:14:37;;;;;;;6.20;0.95;;;;;;;;;;5052787;28;20044;-77
2023/03/07 08:17:03;;;;;;;8.05;1.45;;;;;;;;;;5053238;28;20079;-77
2023/03/07 08:19:29;;;;;;;8.75;1.40;;;;;;;;;;5035858;28;20111;-77
2023/03/07 08:21:56;;;;;;;7.45;1.65;;;;;;;;;;5086645;28;20479;-77
2023/03/07 08:24:22;;;;;;;8.32;1.55;;;;;;;;;;5053977;28;20471;-77
2023/03/07 08:26:48;;;;;;;9.93;1.52;;;;;;;;;;5054109;28;20065;-76
2023/03/07 08:29:14;;;;;;;8.85;1.30;;;;;;;;;;5054049;28;20561;-77
2023/03/07 08:31:42;;;;;;;6.75;1.20;;;;;;;;;;5052387;28;20049;-77
2023/03/07 08:34:08;;;;;;;6.32;0.90;;;;;;;;;;5053071;28;20506;-77
2023/03/07 08:36:34;;;;;;;7.65;1.00;;;;;;;;;;5085866;28;20422;-77
2023/03/07 08:39:00;;;;;;;6.63;0.82;;;;;;;;;;5053940;28;20041;-77
2023/03/07 08:41:27;;;;;;;8.07;0.88;;;;;;;;;;5052105;28;20049;-77
2023/03/07 08:43:53;;;;;;;6.28;0.80;;;;;;;;;;5066714;28;20166;-77
2023/03/07 08:46:20;;;;;;;13.63;1.00;;;;;;;;;;5052226;28;20045;-79
2023/03/07 08:48:46;;;;;;;6.32;0.73;;;;;;;;;;5052459;28;20073;-79
2023/03/07 08:51:14;;;;;;;4.60;0.80;;;;;;;;;;5052325;28;20120;-80
2023/03/07 08:53:42;;;;;;;2.17;0.63;;;;;;;;;;5052463;28;20041;-79
2023/03/07 08:56:12;;;;;;;3.70;0.60;;;;;;;;;;5053489;28;20043;-80
2023/03/07 08:58:38;;;;;;;7.63;0.80;;;;;;;;;;5052196;28;20037;-79
2023/03/07 09:01:06;;;;;;;4.13;0.95;;;;;;;;;;5067169;28;20037;-79
2023/03/07 09:03:33;;;;;;;2.72;0.57;;;;;;;;;;5052143;28;20051;-81
2023/03/07 09:05:59;;;;;;;3.85;0.80;;;;;;;;;;5053342;28;20116;-78
2023/03/07 09:08:26;;;;;;;2.30;0.47;;;;;;;;;;5052067;28;20040;-79
2023/03/07 09:10:52;;;;;;;2.42;0.30;;;;;;;;;;5068757;28;20077;-79
2023/03/07 09:13:18;;;;;;;5.35;0.70;;;;;;;;;;5052001;28;20044;-78
2023/03/07 09:15:44;;;;;;;1.80;0.50;;;;;;;;;;5051729;28;20479;-80
2023/03/07 09:18:10;;;;;;;2.03;0.40;;;;;;;;;;5044513;28;20041;-81
2023/03/07 09:20:37;;;;;;;3.08;0.35;;;;;;;;;;5045907;28;20170;-79
2023/03/07 09:23:04;;;;;;;3.92;0.40;;;;;;;;;;5052180;28;20040;-76
2023/03/07 09:25:30;;;;;;;3.10;0.57;;;;;;;;;;5052867;28;20045;-76
2023/03/07 09:27:56;;;;;;;2.10;0.40;;;;;;;;;;5051715;28;20503;-76
2023/03/07 09:30:24;;;;;;;3.97;0.77;;;;;;;;;;5051457;28;20059;-76
2023/03/07 09:32:50;;;;;;;4.57;0.73;;;;;;;;;;5052760;28;20036;-76
2023/03/07 09:35:16;;;;;;;4.90;0.85;;;;;;;;;;5052835;28;20045;-75
2023/03/07 09:37:42;;;;;;;5.97;0.85;;;;;;;;;;5052650;28;20041;-76
2023/03/07 09:40:16;;;;;;;2.88;0.73;;;;;;;;;;5051635;28;20506;-76
2023/03/07 09:42:57;;;;;;;5.90;1.00;;;;;;;;;;5058906;28;20032;-76
2023/03/07 09:45:44;;;;;;;3.60;0.73;;;;;;;;;;5055484;28;20037;-76
2023/03/07 09:48:16;;;;;;;6.90;0.82;;;;;;;;;;5038674;28;20037;-76
2023/03/07 09:50:53;;;;;;;3.72;0.98;;;;;;;;;;5050972;28;20102;-75
2023/03/07 09:53:24;;;;;;;4.68;0.85;;;;;;;;;;5051468;28;20080;-76
2023/03/07 09:55:51;;;;;;;4.28;1.13;;;;;;;;;;5051551;28;20503;-75
2023/03/07 09:58:20;;;;;;;5.93;1.23;;;;;;;;;;5034877;28;20102;-76
2023/03/07 10:00:47;;;;;;;4.55;0.80;;;;;;;;;;5046109;28;20041;-76
2023/03/07 10:03:25;;;;;;;4.55;0.90;;;;;;;;;;5049547;28;20045;-75
2023/03/07 10:05:53;;;;;;;4.20;0.80;;;;;;;;;;5051103;28;20501;-76
2023/03/07 10:08:21;;;;;;;5.57;0.75;;;;;;;;;;5050784;28;20048;-76
2023/03/07 10:11:02;;;;;;;8.00;1.55;;;;;;;;;;5050746;28;20045;-76
2023/03/07 10:13:31;;;;;;;6.50;0.90;;;;;;;;;;5048364;28;20112;-76
2023/03/07 10:16:01;;;;;;;9.02;1.25;;;;;;;;;;5048196;28;20037;-76
2023/03/07 10:18:32;;;;;;;5.70;1.02;;;;;;;;;;5054921;28;20077;-76
2023/03/07 10:21:07;;;;;;;8.68;1.60;;;;;;;;;;5051759;28;20475;-76
2023/03/07 10:23:36;;;;;;;11.02;3.22;;;;;;;;;;5050707;28;20040;-76
2023/03/07 10:26:14;;;;;;;14.65;3.53;;;;;;;;;;5051146;28;20083;-76
2023/03/07 10:28:41;;;;;;;10.40;2.35;;;;;;;;;;5050476;28;20120;-76
2023/03/07 10:31:20;;;;;;;7.20;2.15;;;;;;;;;;5053202;28;20491;-75
2023/03/07 10:33:47;;;;;;;5.80;1.27;;;;;;;;;;5056117;28;20040;-76
2023/03/07 10:36:18;;;;;;;4.57;1.20;;;;;;;;;;5052522;28;20037;-76
2023/03/07 10:39:00;;;;;;;4.55;1.10;;;;;;;;;;5043965;28;20048;-76
2023/03/07 10:41:26;;;;;;;5.88;1.10;;;;;;;;;;5055864;28;20045;-76
2023/03/07 10:43:53;;;;;;;5.30;1.35;;;;;;;;;;5054415;28;20068;-75
2023/03/07 10:46:24;;;;;;;3.95;0.73;;;;;;;;;;5055102;28;20119;-75
2023/03/07 10:48:52;;;;;;;3.85;0.90;;;;;;;;;;5054727;28;20051;-79
2023/03/07 10:51:36;;;;;;;5.45;1.15;;;;;;;;;;5054627;28;20072;-79
2023/03/07 10:54:04;;;;;;;3.95;0.75;;;;;;;;;;5054666;28;20048;-76
2023/03/07 10:56:30;;;;;;;5.43;0.90;;;;;;;;;;5054653;28;20041;-79
2023/03/07 10:59:04;;;;;;;5.18;0.70;;;;;;;;;;5054245;28;20081;-79
2023/03/07 11:01:31;;;;;;;4.07;0.80;;;;;;;;;;5055676;28;20154;-80
2023/03/07 11:04:00;;;;;;;4.75;1.17;;;;;;;;;;5054166;28;20060;-79
2023/03/07 11:06:34;;;;;;;6.63;0.82;;;;;;;;;;5054467;28;20041;-79
2023/03/07 11:09:19;;;;;;;5.78;0.90;;;;;;;;;;5055597;28;20037;-79
2023/03/07 11:11:51;;;;;;;2.85;0.65;;;;;;;;;;5054097;28;20040;-76
2023/03/07 11:14:17;;;;;;;3.83;0.70;;;;;;;;;;5054441;28;20053;-76
2023/03/07 11:16:55;;;;;;;8.07;1.15;;;;;;;;;;5087625;28;20125;-76
2023/03/07 11:19:27;;;;;;;7.95;1.20;;;;;;;;;;5042745;28;20420;-76
2023/03/07 11:21:55;;;;;;;6.50;1.38;;;;;;;;;;5053416;28;20560;-76
2023/03/07 11:24:28;;;;;;;6.95;1.58;;;;;;;;;;5054144;28;20037;-78
2023/03/07 11:26:55;;;;;;;7.45;0.90;;;;;;;;;;5053656;28;20039;-79
2023/03/07 11:29:23;;;;;;;6.15;0.80;;;;;;;;;;5054874;28;20521;-79
2023/03/07 11:32:05;;;;;;;3.55;0.80;;;;;;;;;;5037201;28;20526;-79
2023/03/07 11:34:45;;;;;;;5.72;0.95;;;;;;;;;;5055347;28;20068;-79
2023/03/07 11:37:20;;;;;;;6.05;1.13;;;;;;;;;;5053563;28;20041;-76
2023/03/07 11:39:46;;;;;;;5.75;1.13;;;;;;;;;;5053675;28;20059;-76
2023/03/07 11:42:21;;;;;;;8.70;1.13;;;;;;;;;;5053524;28;20037;-76
2023/03/07 11:44:57;;;;;;;6.85;1.08;;;;;;;;;;5054765;28;20048;-79
2023/03/07 11:47:35;;;;;;;8.25;1.15;;;;;;;;;;5053525;28;20044;-80
2023/03/07 11:50:05;;;;;;;8.13;1.33;;;;;;;;;;5053308;28;20056;-79
2023/03/07 11:52:31;;;;;;;9.43;1.63;;;;;;;;;;5053707;28;20094;-79
2023/03/07 11:55:16;;;;;;;5.47;1.20;;;;;;;;;;5054769;28;20037;-79
2023/03/07 11:58:14;;;;;;;5.20;1.40;;;;;;;;;;5068904;28;20037;-78
2023/03/07 12:00:51;;;;;;;5.55;1.20;;;;;;;;;;5075503;28;20061;-78
2023/03/07 12:03:36;;;;;;;7.95;1.27;;;;;;;;;;5053762;28;20045;-79
2023/03/07 12:06:15;;;;;;;8.23;1.42;;;;;;;;;;5052999;28;20076;-78
2023/03/07 12:08:44;;;;;;;6.32;1.55;;;;;;;;;;5053297;28;20045;-77
2023/03/07 12:11:13;;;;;;;7.32;1.00;;;;;;;;;;5022388;28;20124;-78
2023/03/07 12:13:39;;;;;;;4.82;1.35;;;;;;;;;;5053267;28;20162;-77
2023/03/07 12:16:14;;;;;;;5.95;1.02;;;;;;;;;;5054011;28;20041;-78
2023/03/07 12:18:56;;;;;;;5.13;1.10;;;;;;;;;;5059869;28;20081;-78
2023/03/07 12:21:53;;;;;;;4.60;0.90;;;;;;;;;;5059547;28;20758;-78
2023/03/07 12:24:23;;;;;;;3.95;0.95;;;;;;;;;;5053471;28;20510;-78
2023/03/07 12:26:56;;;;;;;4.85;0.95;;;;;;;;;;5037636;28;20041;-77
2023/03/07 12:29:41;;;;;;;9.63;1.13;;;;;;;;;;5044201;28;20055;-77
2023/03/07 12:32:13;;;;;;;6.80;1.00;;;;;;;;;;5055739;28;20053;-78
2023/03/07 12:34:42;;;;;;;3.92;1.00;;;;;;;;;;5039788;28;20495;-79
2023/03/07 12:37:16;;;;;;;4.78;0.70;;;;;;;;;;5052984;28;20487;-78
2023/03/07 12:39:42;;;;;;;5.57;1.00;;;;;;;;;;5052784;28;20052;-79
2023/03/07 12:42:15;;;;;;;4.68;0.85;;;;;;;;;;5055468;28;20039;-78
2023/03/07 12:44:48;;;;;;;7.40;0.98;;;;;;;;;;5062944;28;20383;-78
2023/03/07 12:47:41;;;;;;;8.52;1.02;;;;;;;;;;5036260;28;20036;-79
2023/03/07 12:50:15;;;;;;;5.32;0.80;;;;;;;;;;5053368;28;20067;-78
2023/03/07 12:52:49;;;;;;;3.65;1.02;;;;;;;;;;5052660;28;20567;-78
2023/03/07 12:55:22;;;;;;;7.30;1.35;;;;;;;;;;5052378;28;20518;-78
2023/03/07 12:57:53;;;;;;;8.48;1.17;;;;;;;;;;5038722;28;20036;-78
2023/03/07 13:00:20;;;;;;;5.65;1.00;;;;;;;;;;5052450;28;20049;-75
2023/03/07 13:02:52;;;;;;;7.63;0.90;;;;;;;;;;5052181;28;20119;-78
2023/03/07 13:05:20;;;;;;;8.75;1.55;;;;;;;;;;5054390;28;20073;-78
2023/03/07 13:07:46;;;;;;;5.35;0.93;;;;;;;;;;5052113;28;20069;-78
2023/03/07 13:10:16;;;;;;;7.68;1.38;;;;;;;;;;5052600;28;20088;-78
2023/03/07 13:12:42;;;;;;;7.95;0.90;;;;;;;;;;5035398;28;20067;-78
2023/03/07 13:15:18;;;;;;;8.38;0.90;;;;;;;;;;5052419;28;20556;-78
2023/03/07 13:17:44;;;;;;;7.32;1.20;;;;;;;;;;5051957;28;20049;-77
2023/03/07 13:20:19;;;;;;;8.00;1.52;;;;;;;;;;5035798;28;20091;-77
2023/03/07 13:22:45;;;;;;;6.00;0.82;;;;;;;;;;5052383;28;20052;-78
2023/03/07 13:25:20;;;;;;;6.03;0.95;;;;;;;;;;5052303;28;20059;-78
2023/03/07 13:27:47;;;;;;;5.57;1.23;;;;;;;;;;5035623;28;20139;-78
2023/03/07 13:30:20;;;;;;;7.78;0.93;;;;;;;;;;5035216;28;20101;-78
2023/03/07 13:32:55;;;;;;;9.20;0.82;;;;;;;;;;5051747;28;20053;-78
2023/03/07 13:35:27;;;;;;;5.23;0.90;;;;;;;;;;5052147;28;20120;-77
2023/03/07 13:38:03;;;;;;;7.45;0.90;;;;;;;;;;5035394;28;20388;-76
2023/03/07 13:40:29;;;;;;;;;;;;;;;;;;5060990;28;20048;-77
2023/03/07 13:42:56;;;;;;;5.88;0.80;;;;;;;;;;5066112;28;20379;-78
2023/03/07 13:45:37;;;;;;;8.90;1.42;;;;;;;;;;5022139;28;20038;-77
2023/03/07 13:48:27;;;;;;;5.05;0.75;;;;;;;;;;5052531;28;20068;-75
2023/03/07 13:50:53;;;;;;;6.32;0.90;;;;;;;;;;5058466;28;20051;-77
2023/03/07 13:53:19;;;;;;;7.05;0.90;;;;;;;;;;5034640;28;20056;-75
2023/03/07 13:55:56;;;;;;;4.68;0.90;;;;;;;;;;5052798;28;20041;-75
2023/03/07 13:58:33;;;;;;;6.20;0.90;;;;;;;;;;5052138;28;20036;-75
2023/03/07 14:01:01;;;;;;;6.20;0.82;;;;;;;;;;5043326;28;20047;-75
2023/03/07 14:03:41;;;;;;;6.25;0.68;;;;;;;;;;5049770;28;20521;-76
2023/03/07 14:06:09;;;;;;;8.13;1.05;;;;;;;;;;5066599;28;20048;-76
2023/03/07 14:08:36;;;;;;;5.47;0.60;;;;;;;;;;5034381;28;20045;-76
2023/03/07 14:11:03;;;;;;;6.50;1.02;;;;;;;;;;5052230;28;20076;-76
2023/03/07 14:13:40;;;;;;;4.45;0.85;;;;;;;;;;5052216;28;20502;-76
2023/03/07 14:16:09;;;;;;;6.70;0.73;;;;;;;;;;5050919;28;20045;-76
2023/03/07 14:18:44;;;;;;;5.18;0.70;;;;;;;;;;5053217;28;20496;-76
2023/03/07 14:21:11;;;;;;;2.50;0.70;;;;;;;;;;5061361;28;20041;-76
2023/03/07 14:23:55;;;;;;;5.13;0.80;;;;;;;;;;5050787;28;20085;-76
2023/03/07 14:26:22;;;;;;;4.70;0.73;;;;;;;;;;5034198;28;20037;-76
2023/03/07 14:28:48;;;;;;;5.63;0.60;;;;;;;;;;5050874;28;20118;-76
2023/03/07 14:31:24;;;;;;;4.05;0.90;;;;;;;;;;5059229;28;20036;-75
2023/03/07 14:33:50;;;;;;;4.78;0.73;;;;;;;;;;5056251;28;20037;-76
2023/03/07 14:36:22;;;;;;;4.90;0.60;;;;;;;;;;5050668;28;20044;-76
2023/03/07 14:38:49;;;;;;;2.28;0.57;;;;;;;;;;5050617;28;20099;-76
2023/03/07 14:41:15;;;;;;;7.07;0.77;;;;;;;;;;5051985;28;20041;-76
2023/03/07 14:43:52;;;;;;;6.32;0.63;;;;;;;;;;5053195;28;20073;-76
2023/03/07 14:46:24;;;;;;;4.35;0.50;;;;;;;;;;5051025;28;20124;-76
2023/03/07 14:48:54;;;;;;;6.18;0.65;;;;;;;;;;5050610;28;20047;-76
2023/03/07 14:51:21;;;;;;;5.60;0.70;;;;;;;;;;5050702;28;20075;-76